createdAt,value
2017-12-23T00:01:06.794Z,13.60
2017-12-23T00:03:35.160Z,16.60
2017-12-23T00:06:03.491Z,15.40
2017-12-23T00:08:31.813Z,18.53
2017-12-23T00:11:00.170Z,14.77
2017-12-23T00:13:29.288Z,14.70
2017-12-23T00:15:57.661Z,22.10
2017-12-23T00:18:25.976Z,20.90
2017-12-23T00:20:54.354Z,20.90
2017-12-23T00:23:22.770Z,21.87
2017-12-23T00:25:51.866Z,24.23
2017-12-23T00:28:20.228Z,25.43
2017-12-23T00:30:49.444Z,24.17
2017-12-23T00:33:17.783Z,22.33
2017-12-23T00:35:46.143Z,22.17
2017-12-23T00:38:14.472Z,24.10
2017-12-23T00:40:43.683Z,24.70
2017-12-23T00:43:12.012Z,21.00
2017-12-23T00:45:40.376Z,18.50
2017-12-23T00:48:08.700Z,22.00
2017-12-23T00:50:37.812Z,24.23
2017-12-23T00:53:06.192Z,28.60
2017-12-23T00:55:34.511Z,20.83
2017-12-23T00:58:03.048Z,23.80
2017-12-23T01:00:32.281Z,18.67
2017-12-23T01:03:00.607Z,19.53
2017-12-23T01:05:28.956Z,21.07
2017-12-23T01:07:57.311Z,21.10
2017-12-23T01:10:25.676Z,22.80
2017-12-23T01:12:54.004Z,28.60
2017-12-23T01:15:22.364Z,27.30
2017-12-23T01:17:50.727Z,17.93
2017-12-23T01:20:19.060Z,23.00
2017-12-23T01:22:48.161Z,21.67
2017-12-23T01:25:17.280Z,20.07
2017-12-23T01:27:45.655Z,20.20
2017-12-23T01:30:13.984Z,19.30
2017-12-23T01:32:42.336Z,22.60
2017-12-23T01:35:10.704Z,21.57
2017-12-23T01:37:39.139Z,22.87
2017-12-23T01:40:07.529Z,18.40
2017-12-23T01:42:36.634Z,20.47
2017-12-23T01:45:05.721Z,25.50
2017-12-23T01:47:34.903Z,28.63
2017-12-23T01:50:03.258Z,27.00
2017-12-23T01:52:31.600Z,24.33
2017-12-23T01:54:59.953Z,27.20
2017-12-23T01:57:29.198Z,24.90
2017-12-23T01:59:57.635Z,24.87
2017-12-23T02:02:26.739Z,25.30
2017-12-23T02:04:55.887Z,32.43
2017-12-23T02:07:24.220Z,31.90
2017-12-23T02:09:52.544Z,26.60
2017-12-23T02:12:20.936Z,27.37
2017-12-23T02:14:49.276Z,31.90
2017-12-23T02:17:17.648Z,32.53
2017-12-23T02:19:45.972Z,33.37
2017-12-23T02:22:14.298Z,35.47
2017-12-23T02:24:42.645Z,35.80
2017-12-23T02:27:11.783Z,34.33
2017-12-23T02:29:40.155Z,42.33
2017-12-23T02:32:08.596Z,43.37
2017-12-23T02:34:37.869Z,46.57
2017-12-23T02:37:06.224Z,56.67
2017-12-23T02:39:34.600Z,61.83
2017-12-23T02:42:02.931Z,56.90
2017-12-23T02:44:32.056Z,60.00
2017-12-23T02:47:00.377Z,66.80
2017-12-23T02:49:28.762Z,73.20
2017-12-23T02:51:57.108Z,72.70
2017-12-23T02:54:25.458Z,87.90
2017-12-23T02:56:53.821Z,74.13
2017-12-23T02:59:22.914Z,83.13
2017-12-23T03:01:52.016Z,73.40
2017-12-23T03:04:21.200Z,84.00
2017-12-23T03:06:49.544Z,85.00
2017-12-23T03:09:17.872Z,87.37
2017-12-23T03:11:46.221Z,79.93
2017-12-23T03:14:14.581Z,72.43
2017-12-23T03:16:42.912Z,86.57
2017-12-23T03:19:11.244Z,83.37
2017-12-23T03:21:39.592Z,88.50
2017-12-23T03:24:07.936Z,93.30
2017-12-23T03:26:36.290Z,73.30
2017-12-23T03:29:04.658Z,79.40
2017-12-23T03:31:32.980Z,84.37
2017-12-23T03:34:01.320Z,84.87
2017-12-23T03:36:30.447Z,82.97
2017-12-23T03:38:58.771Z,81.83
2017-12-23T03:41:27.094Z,82.17
2017-12-23T03:43:55.451Z,71.27
2017-12-23T03:46:23.833Z,83.43
2017-12-23T03:48:52.925Z,63.43
2017-12-23T03:51:22.074Z,74.77
2017-12-23T03:53:50.433Z,77.80
2017-12-23T03:56:18.818Z,71.40
2017-12-23T03:58:47.179Z,78.73
2017-12-23T04:01:15.504Z,67.43
2017-12-23T04:03:43.819Z,64.73
2017-12-23T04:06:12.915Z,61.37
2017-12-23T04:08:42.013Z,59.73
2017-12-23T04:11:10.340Z,64.73
2017-12-23T04:13:38.712Z,59.07
2017-12-23T04:16:07.040Z,54.53
2017-12-23T04:18:35.368Z,56.03
2017-12-23T04:21:03.720Z,61.13
2017-12-23T04:23:32.048Z,65.67
2017-12-23T04:26:01.150Z,62.00
2017-12-23T04:28:30.284Z,63.00
2017-12-23T04:30:58.627Z,59.40
2017-12-23T04:33:27.763Z,58.80
2017-12-23T04:35:56.112Z,60.53
2017-12-23T04:38:24.446Z,62.60
2017-12-23T04:40:52.811Z,59.47
2017-12-23T04:43:21.160Z,57.93
2017-12-23T04:45:49.497Z,51.90
2017-12-23T04:48:18.590Z,56.03
2017-12-23T04:50:46.940Z,53.70
2017-12-23T04:53:15.284Z,50.10
2017-12-23T04:55:43.623Z,50.60
2017-12-23T04:58:11.943Z,53.40
2017-12-23T05:00:40.308Z,45.90
2017-12-23T05:03:08.688Z,46.53
2017-12-23T05:05:37.024Z,49.17
2017-12-23T05:08:05.360Z,44.83
2017-12-23T05:10:33.732Z,48.10
2017-12-23T05:13:02.060Z,42.53
2017-12-23T05:15:31.146Z,43.10
2017-12-23T05:17:59.509Z,46.13
2017-12-23T05:20:27.833Z,43.90
2017-12-23T05:22:56.200Z,47.10
2017-12-23T05:25:25.379Z,48.90
2017-12-23T05:27:53.708Z,46.23
2017-12-23T05:30:22.059Z,44.50
2017-12-23T05:32:50.400Z,52.53
2017-12-23T05:35:18.719Z,44.13
2017-12-23T05:37:47.067Z,40.40
2017-12-23T05:40:16.260Z,43.77
2017-12-23T05:42:44.592Z,39.60
2017-12-23T05:45:12.924Z,40.43
2017-12-23T05:47:42.087Z,43.90
2017-12-23T05:50:10.424Z,43.90
2017-12-23T05:52:38.748Z,47.43
2017-12-23T05:55:07.068Z,53.93
2017-12-23T05:57:35.416Z,43.47
2017-12-23T06:00:03.805Z,42.00
2017-12-23T06:02:32.909Z,46.07
2017-12-23T06:05:02.206Z,42.90
2017-12-23T06:07:30.539Z,48.90
2017-12-23T06:09:58.868Z,52.90
2017-12-23T06:12:27.214Z,46.57
2017-12-23T06:14:55.547Z,42.77
2017-12-23T06:17:23.881Z,42.87
2017-12-23T06:19:53.028Z,46.00
2017-12-23T06:22:21.349Z,47.73
2017-12-23T06:24:49.676Z,47.17
2017-12-23T06:27:18.011Z,49.47
2017-12-23T06:29:47.108Z,47.07
2017-12-23T06:32:16.244Z,48.03
2017-12-23T06:34:44.573Z,47.20
2017-12-23T06:37:13.677Z,44.80
2017-12-23T06:39:42.804Z,50.27
2017-12-23T06:42:11.136Z,48.83
2017-12-23T06:44:40.244Z,46.37
2017-12-23T06:47:09.327Z,51.87
2017-12-23T06:49:37.671Z,50.43
2017-12-23T06:52:06.092Z,47.80
2017-12-23T06:54:35.269Z,45.50
2017-12-23T06:57:03.612Z,52.40
2017-12-23T06:59:31.959Z,48.83
2017-12-23T07:02:01.070Z,47.80
2017-12-23T07:04:29.400Z,48.57
2017-12-23T07:06:57.740Z,48.83
2017-12-23T07:09:26.077Z,51.23
2017-12-23T07:11:55.229Z,47.77
2017-12-23T07:14:23.834Z,46.10
2017-12-23T07:16:52.273Z,44.80
2017-12-23T07:19:20.676Z,42.93
2017-12-23T07:21:49.178Z,45.97
2017-12-23T07:24:19.037Z,42.40
2017-12-23T07:26:47.433Z,44.60
2017-12-23T07:29:15.873Z,39.20
2017-12-23T07:31:44.305Z,41.23
2017-12-23T07:34:12.733Z,40.77
2017-12-23T07:36:41.894Z,49.90
2017-12-23T07:39:10.260Z,49.00
2017-12-23T07:41:38.647Z,46.03
2017-12-23T07:44:07.036Z,42.87
2017-12-23T07:46:35.412Z,43.30
2017-12-23T07:49:03.842Z,48.30
2017-12-23T07:51:32.216Z,53.50
2017-12-23T07:54:00.573Z,50.07
2017-12-23T07:56:29.734Z,48.03
2017-12-23T07:58:58.102Z,51.43
2017-12-23T08:01:27.339Z,54.03
2017-12-23T08:03:56.455Z,53.30
2017-12-23T08:06:24.840Z,55.97
2017-12-23T08:08:53.216Z,47.57
2017-12-23T08:11:21.609Z,50.60
2017-12-23T08:13:49.997Z,53.53
2017-12-23T08:16:18.368Z,47.13
2017-12-23T08:18:46.785Z,48.33
2017-12-23T08:21:15.181Z,42.20
2017-12-23T08:23:44.416Z,45.07
2017-12-23T08:26:12.974Z,41.57
2017-12-23T08:28:41.431Z,36.93
2017-12-23T08:31:09.937Z,35.57
2017-12-23T08:33:38.351Z,37.60
2017-12-23T08:36:06.718Z,35.00
2017-12-23T08:38:35.044Z,35.80
2017-12-23T08:41:03.410Z,27.30
2017-12-23T08:43:31.775Z,32.90
2017-12-23T08:46:00.117Z,27.47
2017-12-23T08:48:28.474Z,28.10
2017-12-23T08:50:56.808Z,27.17
2017-12-23T08:53:25.940Z,25.67
2017-12-23T08:55:55.045Z,24.90
2017-12-23T08:58:23.390Z,24.97
2017-12-23T09:00:51.761Z,24.80
2017-12-23T09:03:20.095Z,24.00
2017-12-23T09:05:48.440Z,21.53
2017-12-23T09:08:16.810Z,18.57
2017-12-23T09:10:45.127Z,24.37
2017-12-23T09:13:13.453Z,22.03
2017-12-23T09:15:41.849Z,23.13
2017-12-23T09:18:10.191Z,20.57
2017-12-23T09:20:38.516Z,20.80
2017-12-23T09:23:07.689Z,18.40
2017-12-23T09:25:36.028Z,17.70
2017-12-23T09:28:04.365Z,15.90
2017-12-23T09:30:32.728Z,13.83
2017-12-23T09:33:01.140Z,16.80
2017-12-23T09:35:29.476Z,14.63
2017-12-23T09:37:57.821Z,14.50
2017-12-23T09:40:26.213Z,15.67
2017-12-23T09:42:54.539Z,12.63
2017-12-23T09:45:23.659Z,12.00
2017-12-23T09:47:52.014Z,13.90
2017-12-23T09:50:21.136Z,14.40
2017-12-23T09:52:49.472Z,10.90
2017-12-23T09:55:17.844Z,14.57
2017-12-23T09:57:46.175Z,14.77
2017-12-23T10:00:14.513Z,14.90
2017-12-23T10:02:43.757Z,13.43
2017-12-23T10:05:12.087Z,13.43
2017-12-23T10:07:40.432Z,14.47
2017-12-23T10:10:08.806Z,14.03
2017-12-23T10:12:37.128Z,12.30
2017-12-23T10:15:05.455Z,14.57
2017-12-23T10:17:33.816Z,13.33
2017-12-23T10:20:02.145Z,13.30
2017-12-23T10:22:30.500Z,13.83
2017-12-23T10:24:58.849Z,16.50
2017-12-23T10:27:27.191Z,15.80
2017-12-23T10:29:56.299Z,15.50
2017-12-23T10:32:24.656Z,14.40
2017-12-23T10:34:52.977Z,15.40
2017-12-23T10:37:21.334Z,15.00
2017-12-23T10:39:50.457Z,14.13
2017-12-23T10:42:18.784Z,18.60
2017-12-23T10:44:47.119Z,15.37
2017-12-23T10:47:15.456Z,16.20
2017-12-23T10:49:44.548Z,17.90
2017-12-23T10:52:13.696Z,14.67
2017-12-23T10:54:42.026Z,15.47
2017-12-23T10:57:10.368Z,14.30
2017-12-23T10:59:38.739Z,14.90
2017-12-23T11:02:07.072Z,15.47
2017-12-23T11:04:35.396Z,13.50
2017-12-23T11:07:03.780Z,13.90
2017-12-23T11:09:32.127Z,13.67
2017-12-23T11:12:00.452Z,12.57
2017-12-23T11:14:29.568Z,14.00
2017-12-23T11:16:57.917Z,13.40
2017-12-23T11:19:26.248Z,14.13
2017-12-23T11:21:54.592Z,13.63
2017-12-23T11:24:23.697Z,13.30
2017-12-23T11:26:52.023Z,12.43
2017-12-23T11:29:20.379Z,11.93
2017-12-23T11:31:48.711Z,11.40
2017-12-23T11:34:17.807Z,11.47
2017-12-23T11:36:46.933Z,12.20
2017-12-23T11:39:15.279Z,18.10
2017-12-23T11:41:43.664Z,13.57
2017-12-23T11:44:12.784Z,11.13
2017-12-23T11:46:41.099Z,14.27
2017-12-23T11:49:09.424Z,12.83
2017-12-23T11:51:37.805Z,12.00
2017-12-23T11:54:06.133Z,12.80
2017-12-23T11:56:34.472Z,12.13
2017-12-23T11:59:02.819Z,12.47
2017-12-23T12:01:31.921Z,11.53
2017-12-23T12:04:01.060Z,13.13
2017-12-23T12:06:29.387Z,15.63
2017-12-23T12:08:58.496Z,13.70
2017-12-23T12:11:26.849Z,13.50
2017-12-23T12:13:55.651Z,11.80
2017-12-23T12:16:24.741Z,11.13
2017-12-23T12:18:54.282Z,14.33
2017-12-23T12:21:22.615Z,11.40
2017-12-23T12:23:50.952Z,10.93
2017-12-23T12:26:20.601Z,12.43
2017-12-23T12:28:50.736Z,11.90
2017-12-23T12:31:19.095Z,11.53
2017-12-23T12:33:47.435Z,15.23
2017-12-23T12:36:15.780Z,13.07
2017-12-23T12:38:44.346Z,12.50
2017-12-23T12:41:12.665Z,13.63
2017-12-23T12:43:40.992Z,13.93
2017-12-23T12:46:09.371Z,18.33
2017-12-23T12:48:39.385Z,21.83
2017-12-23T12:51:07.716Z,17.70
2017-12-23T12:53:36.101Z,14.83
2017-12-23T12:56:04.700Z,15.10
2017-12-23T12:58:33.049Z,15.95
2017-12-23T13:01:01.449Z,18.80
2017-12-23T13:03:29.772Z,16.90
2017-12-23T13:05:58.891Z,21.93
2017-12-23T13:08:27.454Z,21.07
2017-12-23T13:10:55.802Z,23.33
2017-12-23T13:13:24.957Z,25.30
2017-12-23T13:15:53.332Z,23.60
2017-12-23T13:18:21.716Z,27.13
2017-12-23T13:20:50.070Z,26.70
2017-12-23T13:23:18.589Z,27.17
2017-12-23T13:25:46.916Z,26.10
2017-12-23T13:28:16.032Z,27.47
2017-12-23T13:30:44.363Z,27.63
2017-12-23T13:33:12.852Z,27.60
2017-12-23T13:35:41.238Z,31.27
2017-12-23T13:38:10.352Z,28.70
2017-12-23T13:40:38.673Z,27.87
2017-12-23T13:43:07.016Z,33.50
2017-12-23T13:45:35.332Z,29.53
2017-12-23T13:48:04.464Z,27.73
2017-12-23T13:50:33.604Z,30.77
2017-12-23T13:53:01.982Z,31.50
2017-12-23T13:55:30.342Z,32.57
2017-12-23T13:57:58.669Z,29.70
2017-12-23T14:00:27.009Z,27.63
2017-12-23T14:02:55.382Z,37.67
2017-12-23T14:05:23.736Z,35.37
2017-12-23T14:07:52.882Z,33.47
2017-12-23T14:10:21.308Z,36.70
2017-12-23T14:12:50.449Z,42.23
2017-12-23T14:15:18.777Z,35.83
2017-12-23T14:17:47.892Z,42.87
2017-12-23T14:20:16.241Z,45.13
2017-12-23T14:22:45.380Z,44.20
2017-12-23T14:25:13.717Z,40.50
2017-12-23T14:27:42.813Z,43.63
2017-12-23T14:30:11.900Z,46.43
2017-12-23T14:32:41.042Z,42.00
2017-12-23T14:35:09.390Z,38.77
2017-12-23T14:37:37.746Z,39.10
2017-12-23T14:40:06.087Z,47.50
2017-12-23T14:42:34.414Z,44.60
2017-12-23T14:45:03.530Z,43.73
2017-12-23T14:47:31.869Z,46.93
2017-12-23T14:50:00.212Z,46.00
2017-12-23T14:52:28.592Z,47.30
2017-12-23T14:54:56.918Z,45.50
2017-12-23T14:57:26.056Z,47.00
2017-12-23T14:59:54.411Z,46.27
2017-12-23T15:02:22.753Z,42.87
2017-12-23T15:04:51.100Z,43.00
2017-12-23T15:07:19.422Z,42.17
2017-12-23T15:09:48.538Z,46.80
2017-12-23T15:12:16.909Z,41.67
2017-12-23T15:14:45.996Z,47.37
2017-12-23T15:17:15.086Z,45.07
2017-12-23T15:19:44.229Z,45.00
2017-12-23T15:22:12.553Z,46.97
2017-12-23T15:24:41.714Z,44.17
2017-12-23T15:27:10.061Z,44.77
2017-12-23T15:29:38.404Z,49.00
2017-12-23T15:32:06.791Z,41.43
2017-12-23T15:34:35.949Z,42.77
2017-12-23T15:37:04.273Z,41.20
2017-12-23T15:39:33.363Z,39.10
2017-12-23T15:42:02.485Z,39.17
2017-12-23T15:44:30.810Z,37.30
2017-12-23T15:46:59.184Z,38.87
2017-12-23T15:49:27.553Z,41.43
2017-12-23T15:51:55.887Z,37.93
2017-12-23T15:54:24.225Z,36.37
2017-12-23T15:56:52.577Z,37.17
2017-12-23T15:59:20.937Z,43.67
2017-12-23T16:01:49.305Z,38.40
2017-12-23T16:04:17.636Z,43.53
2017-12-23T16:06:46.030Z,36.67
2017-12-23T16:09:15.113Z,39.23
2017-12-23T16:11:43.432Z,37.70
2017-12-23T16:14:11.779Z,42.17
2017-12-23T16:16:40.877Z,37.83
2017-12-23T16:19:09.968Z,42.33
2017-12-23T16:21:39.117Z,39.17
2017-12-23T16:24:07.437Z,39.70
2017-12-23T16:26:35.758Z,35.30
2017-12-23T16:29:04.123Z,44.10
2017-12-23T16:31:32.452Z,37.70
2017-12-23T16:34:00.823Z,40.73
2017-12-23T16:36:29.170Z,40.40
2017-12-23T16:38:57.493Z,40.10
2017-12-23T16:41:25.849Z,41.83
2017-12-23T16:43:54.195Z,41.60
2017-12-23T16:46:22.566Z,41.60
2017-12-23T16:48:50.892Z,41.70
2017-12-23T16:51:19.225Z,42.30
2017-12-23T16:53:47.600Z,42.73
2017-12-23T16:56:15.924Z,37.93
2017-12-23T16:58:44.274Z,43.93
2017-12-23T17:01:12.627Z,37.20
2017-12-23T17:03:40.942Z,44.13
2017-12-23T17:06:09.293Z,39.90
2017-12-23T17:08:37.651Z,42.10
2017-12-23T17:11:06.023Z,42.80
2017-12-23T17:13:34.379Z,44.27
2017-12-23T17:16:02.744Z,46.93
2017-12-23T17:18:31.069Z,40.40
2017-12-23T17:20:59.392Z,45.43
2017-12-23T17:23:27.762Z,44.80
2017-12-23T17:25:56.113Z,40.60
2017-12-23T17:28:42.277Z,42.57
2017-12-23T17:31:11.371Z,46.60
2017-12-23T17:33:40.453Z,47.80
2017-12-23T17:36:08.820Z,47.40
2017-12-23T17:38:37.166Z,43.10
2017-12-23T17:41:05.489Z,42.60
2017-12-23T17:43:34.629Z,47.43
2017-12-23T17:46:02.969Z,47.90
2017-12-23T17:48:31.313Z,47.60
2017-12-23T17:50:59.706Z,50.20
2017-12-23T17:53:28.065Z,49.50
2017-12-23T17:55:56.400Z,52.20
2017-12-23T17:58:24.760Z,51.57
2017-12-23T18:00:53.106Z,55.37
2017-12-23T18:03:21.484Z,52.77
2017-12-23T18:05:49.814Z,55.00
2017-12-23T18:08:18.134Z,57.67
2017-12-23T18:10:46.523Z,64.97
2017-12-23T18:13:14.866Z,60.60
2017-12-23T18:15:43.204Z,64.60
2017-12-23T18:18:12.342Z,60.90
2017-12-23T18:20:40.695Z,64.50
2017-12-23T18:23:09.041Z,55.70
2017-12-23T18:25:37.378Z,63.23
2017-12-23T18:28:05.704Z,53.27
2017-12-23T18:30:34.820Z,62.07
2017-12-23T18:33:03.188Z,68.87
2017-12-23T18:35:32.279Z,58.87
2017-12-23T18:38:01.371Z,59.80
2017-12-23T18:40:30.488Z,58.50
2017-12-23T18:42:58.809Z,54.00
2017-12-23T18:45:27.167Z,56.43
2017-12-23T18:47:55.495Z,55.67
2017-12-23T18:50:24.576Z,56.90
2017-12-23T18:52:52.936Z,56.40
2017-12-23T18:55:21.267Z,57.93
2017-12-23T18:57:49.607Z,57.77
2017-12-23T19:00:18.014Z,63.07
2017-12-23T19:02:47.120Z,61.80
2017-12-23T19:05:15.459Z,65.33
2017-12-23T19:07:43.823Z,65.53
2017-12-23T19:10:12.149Z,61.23
2017-12-23T19:12:40.474Z,67.87
2017-12-23T19:15:08.838Z,60.80
2017-12-23T19:17:37.187Z,57.63
2017-12-23T19:20:05.588Z,64.73
2017-12-23T19:22:33.920Z,70.17
2017-12-23T19:25:03.036Z,64.50
2017-12-23T19:27:31.396Z,71.93
2017-12-23T19:30:00.490Z,68.07
2017-12-23T19:32:29.593Z,62.37
2017-12-23T19:34:57.963Z,61.77
2017-12-23T19:37:27.062Z,60.23
2017-12-23T19:39:56.152Z,59.13
2017-12-23T19:42:24.527Z,63.80
2017-12-23T19:44:53.619Z,62.03
2017-12-23T19:47:22.704Z,60.17
2017-12-23T19:49:51.067Z,64.40
2017-12-23T19:52:19.402Z,63.00
2017-12-23T19:54:47.741Z,63.30
2017-12-23T19:57:16.868Z,63.63
2017-12-23T19:59:45.208Z,63.80
2017-12-23T20:02:13.540Z,60.57
2017-12-23T20:04:41.904Z,61.57
2017-12-23T20:07:10.225Z,64.43
2017-12-23T20:09:38.568Z,66.33
2017-12-23T20:12:06.920Z,64.40
2017-12-23T20:14:35.296Z,66.23
2017-12-23T20:17:04.402Z,68.10
2017-12-23T20:19:33.509Z,63.77
2017-12-23T20:22:01.847Z,61.53
2017-12-23T20:24:30.168Z,66.50
2017-12-23T20:26:58.528Z,60.20
2017-12-23T20:29:26.865Z,64.73
2017-12-23T20:31:55.984Z,60.03
2017-12-23T20:34:25.109Z,58.70
2017-12-23T20:36:53.423Z,62.53
2017-12-23T20:39:22.529Z,68.70
2017-12-23T20:41:50.886Z,65.90
2017-12-23T20:44:19.224Z,65.20
2017-12-23T20:46:47.559Z,60.77
2017-12-23T20:49:15.929Z,58.77
2017-12-23T20:51:44.259Z,66.20
2017-12-23T20:54:12.590Z,63.97
2017-12-23T20:56:40.979Z,57.87
2017-12-23T20:59:09.312Z,69.43
2017-12-23T21:01:37.628Z,62.10
2017-12-23T21:04:05.967Z,65.20
2017-12-23T21:06:34.321Z,63.70
2017-12-23T21:09:02.686Z,66.20
2017-12-23T21:11:31.802Z,61.00
2017-12-23T21:14:00.126Z,64.97
2017-12-23T21:16:28.481Z,61.90
2017-12-23T21:18:56.839Z,57.70
2017-12-23T21:21:25.176Z,62.07
2017-12-23T21:23:54.273Z,63.80
2017-12-23T21:26:23.395Z,59.37
2017-12-23T21:28:51.747Z,58.40
2017-12-23T21:31:20.839Z,53.57
2017-12-23T21:33:49.992Z,57.87
2017-12-23T21:36:18.367Z,51.00
2017-12-23T21:38:46.666Z,54.60
2017-12-23T21:41:15.027Z,52.80
2017-12-23T21:43:43.360Z,51.20
2017-12-23T21:46:12.440Z,56.23
2017-12-23T21:48:41.560Z,51.40
2017-12-23T21:51:10.017Z,58.53
2017-12-23T21:53:39.119Z,52.93
2017-12-23T21:56:08.208Z,55.13
2017-12-23T21:58:37.359Z,50.67
2017-12-23T22:01:05.689Z,55.37
2017-12-23T22:03:34.837Z,49.63
2017-12-23T22:06:03.187Z,45.80
2017-12-23T22:08:31.520Z,45.63
2017-12-23T22:10:59.843Z,43.77
2017-12-23T22:13:28.196Z,40.97
2017-12-23T22:15:57.299Z,43.47
2017-12-23T22:18:25.630Z,44.30
2017-12-23T22:20:53.988Z,39.93
2017-12-23T22:23:22.331Z,44.10
2017-12-23T22:25:51.429Z,41.47
2017-12-23T22:28:19.829Z,44.43
2017-12-23T22:30:48.153Z,38.97
2017-12-23T22:33:16.507Z,44.93
2017-12-23T22:35:44.881Z,44.03
2017-12-23T22:38:13.259Z,42.43
2017-12-23T22:40:41.611Z,36.60
2017-12-23T22:43:10.019Z,41.70
2017-12-23T22:45:38.350Z,36.80
2017-12-23T22:48:06.690Z,39.43
2017-12-23T22:50:35.055Z,36.17
2017-12-23T22:53:03.404Z,35.20
2017-12-23T22:55:31.736Z,33.30
2017-12-23T22:58:00.091Z,37.30
2017-12-23T23:00:28.437Z,31.60
2017-12-23T23:02:56.764Z,32.17
2017-12-23T23:05:25.115Z,34.43
2017-12-23T23:07:53.450Z,35.40
2017-12-23T23:10:21.800Z,33.27
2017-12-23T23:12:50.918Z,32.43
2017-12-23T23:15:19.259Z,31.40
2017-12-23T23:17:47.632Z,31.47
2017-12-23T23:20:15.981Z,31.87
2017-12-23T23:22:44.300Z,26.10
2017-12-23T23:25:12.631Z,28.47
2017-12-23T23:27:40.985Z,27.60
2017-12-23T23:30:10.069Z,23.43
2017-12-23T23:32:39.161Z,25.47
2017-12-23T23:35:08.272Z,27.50
2017-12-23T23:37:36.601Z,27.10
2017-12-23T23:40:04.948Z,27.63
2017-12-23T23:42:33.281Z,21.83
2017-12-23T23:45:02.382Z,26.00
2017-12-23T23:47:31.510Z,25.40
2017-12-23T23:49:59.828Z,25.10
2017-12-23T23:52:29.324Z,25.10
2017-12-23T23:54:57.706Z,23.93
2017-12-23T23:57:26.036Z,22.10
2017-12-23T23:59:54.413Z,24.37
